sensor_id;sensor_type;location;lat;lon;timestamp;pressure;altitude;pressure_sealevel;temperature;humidity
77351;BME280;66420;50.246;14.320;2023-08-08T00:02:00;99495.16;;;12.69;86.63
77351;BME280;66420;50.246;14.320;2023-08-08T00:04:45;99490.94;;;12.63;87.17
77351;BME280;66420;50.246;14.320;2023-08-08T00:07:29;99493.19;;;12.61;86.63
77351;BME280;66420;50.246;14.320;2023-08-08T00:10:15;99491.41;;;12.56;86.95
77351;BME280;66420;50.246;14.320;2023-08-08T00:12:59;99496.75;;;12.53;87.96
77351;BME280;66420;50.246;14.320;2023-08-08T00:15:44;99490.28;;;12.49;88.36
77351;BME280;66420;50.246;14.320;2023-08-08T00:18:29;99479.97;;;12.46;88.49
77351;BME280;66420;50.246;14.320;2023-08-08T00:21:14;99491.56;;;12.42;88.52
77351;BME280;66420;50.246;14.320;2023-08-08T00:23:58;99485.13;;;12.38;89.25
77351;BME280;66420;50.246;14.320;2023-08-08T00:26:43;99490.28;;;12.31;88.71
77351;BME280;66420;50.246;14.320;2023-08-08T00:29:28;99484.31;;;12.29;89.68
77351;BME280;66420;50.246;14.320;2023-08-08T00:32:13;99476.72;;;12.26;88.96
77351;BME280;66420;50.246;14.320;2023-08-08T00:34:58;99483.66;;;12.24;88.87
77351;BME280;66420;50.246;14.320;2023-08-08T00:37:42;99476.38;;;12.19;89.34
77351;BME280;66420;50.246;14.320;2023-08-08T00:40:27;99482.22;;;12.18;89.34
77351;BME280;66420;50.246;14.320;2023-08-08T00:43:11;99482.06;;;12.14;89.55
77351;BME280;66420;50.246;14.320;2023-08-08T00:45:56;99486.88;;;12.09;90.17
77351;BME280;66420;50.246;14.320;2023-08-08T00:48:41;99486.88;;;12.09;89.94
77351;BME280;66420;50.246;14.320;2023-08-08T00:51:27;99487.03;;;12.04;89.98
77351;BME280;66420;50.246;14.320;2023-08-08T00:54:11;99483.47;;;12.03;90.43
77351;BME280;66420;50.246;14.320;2023-08-08T00:56:58;99474.91;;;11.96;90.55
77351;BME280;66420;50.246;14.320;2023-08-08T00:59:42;99474.56;;;11.97;90.76
77351;BME280;66420;50.246;14.320;2023-08-08T01:02:27;99472.78;;;11.93;90.96
77351;BME280;66420;50.246;14.320;2023-08-08T01:05:12;99479.91;;;11.94;90.79
77351;BME280;66420;50.246;14.320;2023-08-08T01:10:46;99480.34;;;11.87;91.26
77351;BME280;66420;50.246;14.320;2023-08-08T01:13:31;99478.44;;;11.88;91.39
77351;BME280;66420;50.246;14.320;2023-08-08T01:16:18;99481.81;;;11.85;91.50
77351;BME280;66420;50.246;14.320;2023-08-08T01:19:04;99477.16;;;11.85;91.36
77351;BME280;66420;50.246;14.320;2023-08-08T01:21:53;99483.25;;;11.82;91.53
77351;BME280;66420;50.246;14.320;2023-08-08T01:24:38;99480.84;;;11.81;91.29
77351;BME280;66420;50.246;14.320;2023-08-08T01:27:22;99489.53;;;11.83;91.04
77351;BME280;66420;50.246;14.320;2023-08-08T01:30:08;99486.47;;;11.76;91.49
77351;BME280;66420;50.246;14.320;2023-08-08T01:32:53;99478.25;;;11.76;92.03
77351;BME280;66420;50.246;14.320;2023-08-08T01:35:38;99474.84;;;11.79;90.93
77351;BME280;66420;50.246;14.320;2023-08-08T01:38:32;99479.56;;;11.87;90.21
77351;BME280;66420;50.246;14.320;2023-08-08T01:41:18;99479.38;;;11.83;90.47
77351;BME280;66420;50.246;14.320;2023-08-08T01:44:04;99471.50;;;11.82;90.07
77351;BME280;66420;50.246;14.320;2023-08-08T01:46:51;99465.00;;;11.78;90.85
77351;BME280;66420;50.246;14.320;2023-08-08T01:49:36;99457.28;;;11.80;89.96
77351;BME280;66420;50.246;14.320;2023-08-08T01:52:21;99447.44;;;11.79;90.02
77351;BME280;66420;50.246;14.320;2023-08-08T01:55:07;99446.16;;;11.76;89.80
77351;BME280;66420;50.246;14.320;2023-08-08T01:57:53;99461.78;;;11.76;90.08
77351;BME280;66420;50.246;14.320;2023-08-08T02:00:38;99464.22;;;11.77;89.57
77351;BME280;66420;50.246;14.320;2023-08-08T02:03:25;99455.13;;;11.68;90.30
77351;BME280;66420;50.246;14.320;2023-08-08T02:06:10;99458.66;;;11.69;89.74
77351;BME280;66420;50.246;14.320;2023-08-08T02:08:55;99459.81;;;11.68;90.12
77351;BME280;66420;50.246;14.320;2023-08-08T02:11:40;99470.13;;;11.71;89.51
77351;BME280;66420;50.246;14.320;2023-08-08T02:14:25;99467.38;;;11.71;89.11
77351;BME280;66420;50.246;14.320;2023-08-08T02:17:10;99471.41;;;11.65;89.02
77351;BME280;66420;50.246;14.320;2023-08-08T02:19:54;99469.94;;;11.59;89.52
77351;BME280;66420;50.246;14.320;2023-08-08T02:22:39;99471.53;;;11.60;89.70
77351;BME280;66420;50.246;14.320;2023-08-08T02:25:24;99472.03;;;11.62;89.33
77351;BME280;66420;50.246;14.320;2023-08-08T02:28:08;99469.97;;;11.67;89.03
77351;BME280;66420;50.246;14.320;2023-08-08T02:30:54;99459.47;;;11.69;88.43
77351;BME280;66420;50.246;14.320;2023-08-08T02:33:39;99459.78;;;11.59;89.45
77351;BME280;66420;50.246;14.320;2023-08-08T02:36:24;99463.47;;;11.54;89.36
77351;BME280;66420;50.246;14.320;2023-08-08T02:39:08;99461.53;;;11.55;89.32
77351;BME280;66420;50.246;14.320;2023-08-08T02:41:53;99452.69;;;11.58;89.32
77351;BME280;66420;50.246;14.320;2023-08-08T02:44:38;99458.13;;;11.49;89.65
77351;BME280;66420;50.246;14.320;2023-08-08T02:47:23;99464.44;;;11.50;89.50
77351;BME280;66420;50.246;14.320;2023-08-08T02:50:09;99463.94;;;11.56;89.07
77351;BME280;66420;50.246;14.320;2023-08-08T02:52:54;99461.53;;;11.55;89.64
77351;BME280;66420;50.246;14.320;2023-08-08T02:55:38;99457.19;;;11.54;89.42
77351;BME280;66420;50.246;14.320;2023-08-08T02:58:23;99466.53;;;11.53;89.53
77351;BME280;66420;50.246;14.320;2023-08-08T03:01:08;99471.50;;;11.51;89.10
77351;BME280;66420;50.246;14.320;2023-08-08T03:03:53;99463.94;;;11.56;88.41
77351;BME280;66420;50.246;14.320;2023-08-08T03:06:38;99451.19;;;11.52;88.86
77351;BME280;66420;50.246;14.320;2023-08-08T03:09:23;99465.56;;;11.57;88.44
77351;BME280;66420;50.246;14.320;2023-08-08T03:12:08;99458.03;;;11.63;87.58
77351;BME280;66420;50.246;14.320;2023-08-08T03:14:53;99464.13;;;11.60;87.96
77351;BME280;66420;50.246;14.320;2023-08-08T03:17:38;99472.34;;;11.60;88.70
77351;BME280;66420;50.246;14.320;2023-08-08T03:20:22;99469.94;;;11.59;88.27
77351;BME280;66420;50.246;14.320;2023-08-08T03:23:07;99468.00;;;11.59;88.21
77351;BME280;66420;50.246;14.320;2023-08-08T03:25:52;99475.09;;;11.60;88.24
77351;BME280;66420;50.246;14.320;2023-08-08T03:28:37;99471.53;;;11.60;87.76
77351;BME280;66420;50.246;14.320;2023-08-08T03:31:22;99464.59;;;11.53;88.00
77351;BME280;66420;50.246;14.320;2023-08-08T03:34:07;99472.81;;;11.53;88.14
77351;BME280;66420;50.246;14.320;2023-08-08T03:36:51;99462.34;;;11.55;87.98
77351;BME280;66420;50.246;14.320;2023-08-08T03:39:36;99466.56;;;11.62;87.48
77351;BME280;66420;50.246;14.320;2023-08-08T03:42:21;99471.22;;;11.61;87.65
77351;BME280;66420;50.246;14.320;2023-08-08T03:45:06;99467.38;;;11.62;87.66
77351;BME280;66420;50.246;14.320;2023-08-08T03:47:51;99467.22;;;11.67;87.34
77351;BME280;66420;50.246;14.320;2023-08-08T03:50:35;99477.38;;;11.67;87.21
77351;BME280;66420;50.246;14.320;2023-08-08T03:53:20;99473.00;;;11.66;87.87
77351;BME280;66420;50.246;14.320;2023-08-08T03:56:04;99475.63;;;11.71;87.30
77351;BME280;66420;50.246;14.320;2023-08-08T03:58:49;99471.25;;;11.70;87.77
77351;BME280;66420;50.246;14.320;2023-08-08T04:01:33;99472.38;;;11.69;87.42
77351;BME280;66420;50.246;14.320;2023-08-08T04:04:18;99474.00;;;11.70;87.54
77351;BME280;66420;50.246;14.320;2023-08-08T04:07:02;99469.00;;;11.72;87.05
77351;BME280;66420;50.246;14.320;2023-08-08T04:09:48;99476.44;;;11.71;87.66
77351;BME280;66420;50.246;14.320;2023-08-08T04:12:32;99482.59;;;11.77;87.33
77351;BME280;66420;50.246;14.320;2023-08-08T04:15:17;99477.75;;;11.74;87.67
77351;BME280;66420;50.246;14.320;2023-08-08T04:18:02;99481.47;;;11.78;87.58
77351;BME280;66420;50.246;14.320;2023-08-08T04:20:47;99485.22;;;11.82;87.49
77351;BME280;66420;50.246;14.320;2023-08-08T04:23:32;99486.50;;;11.84;86.74
77351;BME280;66420;50.246;14.320;2023-08-08T04:26:17;99477.16;;;11.94;86.99
77351;BME280;66420;50.246;14.320;2023-08-08T04:29:01;99490.06;;;11.93;86.72
77351;BME280;66420;50.246;14.320;2023-08-08T04:31:47;99498.78;;;11.95;87.31
77351;BME280;66420;50.246;14.320;2023-08-08T04:34:32;99496.50;;;11.89;88.02
77351;BME280;66420;50.246;14.320;2023-08-08T04:37:17;99497.47;;;11.93;87.33
77351;BME280;66420;50.246;14.320;2023-08-08T04:40:02;99500.88;;;11.98;87.95
77351;BME280;66420;50.246;14.320;2023-08-08T04:42:48;99499.94;;;12.03;87.15
77351;BME280;66420;50.246;14.320;2023-08-08T04:45:33;99499.47;;;12.10;88.40
77351;BME280;66420;50.246;14.320;2023-08-08T04:48:18;99492.03;;;12.10;87.38
77351;BME280;66420;50.246;14.320;2023-08-08T04:51:06;99495.41;;;12.07;88.26
77351;BME280;66420;50.246;14.320;2023-08-08T04:53:52;99487.34;;;12.11;87.57
77351;BME280;66420;50.246;14.320;2023-08-08T04:56:36;99497.34;;;12.07;88.48
77351;BME280;66420;50.246;14.320;2023-08-08T04:59:21;99489.47;;;12.14;88.26
77351;BME280;66420;50.246;14.320;2023-08-08T05:02:05;99485.91;;;12.13;87.73
77351;BME280;66420;50.246;14.320;2023-08-08T05:04:50;99478.97;;;12.16;88.31
77351;BME280;66420;50.246;14.320;2023-08-08T05:07:35;99479.31;;;12.14;88.10
77351;BME280;66420;50.246;14.320;2023-08-08T05:10:22;99488.66;;;12.13;88.00
77351;BME280;66420;50.246;14.320;2023-08-08T05:13:08;99481.06;;;12.10;88.03
77351;BME280;66420;50.246;14.320;2023-08-08T05:15:53;99480.88;;;12.07;88.95
77351;BME280;66420;50.246;14.320;2023-08-08T05:18:38;99485.91;;;12.05;89.36
77351;BME280;66420;50.246;14.320;2023-08-08T05:21:23;99485.56;;;12.06;88.86
77351;BME280;66420;50.246;14.320;2023-08-08T05:24:09;99490.28;;;12.14;89.08
77351;BME280;66420;50.246;14.320;2023-08-08T05:26:54;99483.16;;;12.13;89.26
77351;BME280;66420;50.246;14.320;2023-08-08T05:29:39;99489.78;;;12.21;88.07
77351;BME280;66420;50.246;14.320;2023-08-08T05:32:25;99486.25;;;12.29;88.59
77351;BME280;66420;50.246;14.320;2023-08-08T05:35:10;99486.09;;;12.42;87.36
77351;BME280;66420;50.246;14.320;2023-08-08T05:37:54;99486.75;;;12.57;88.04
77351;BME280;66420;50.246;14.320;2023-08-08T05:40:39;99487.38;;;12.71;87.23
77351;BME280;66420;50.246;14.320;2023-08-08T05:43:24;99481.25;;;12.74;86.34
77351;BME280;66420;50.246;14.320;2023-08-08T05:46:09;99475.41;;;12.84;87.23
77351;BME280;66420;50.246;14.320;2023-08-08T05:48:53;99473.16;;;12.86;86.08
77351;BME280;66420;50.246;14.320;2023-08-08T05:51:40;99486.38;;;12.84;86.51
77351;BME280;66420;50.246;14.320;2023-08-08T05:54:25;99492.53;;;12.81;86.41
77351;BME280;66420;50.246;14.320;2023-08-08T05:57:09;99483.19;;;12.82;86.00
77351;BME280;66420;50.246;14.320;2023-08-08T05:59:54;99488.03;;;12.76;86.25
77351;BME280;66420;50.246;14.320;2023-08-08T06:02:38;99489.47;;;12.82;86.43
77351;BME280;66420;50.246;14.320;2023-08-08T06:05:23;99493.00;;;13.00;86.64
77351;BME280;66420;50.246;14.320;2023-08-08T06:08:09;99490.38;;;13.21;84.60
77351;BME280;66420;50.246;14.320;2023-08-08T06:10:57;99504.25;;;13.42;84.44
77351;BME280;66420;50.246;14.320;2023-08-08T06:13:42;99502.38;;;13.63;82.43
77351;BME280;66420;50.246;14.320;2023-08-08T06:16:26;99502.47;;;13.84;82.22
77351;BME280;66420;50.246;14.320;2023-08-08T06:19:11;99488.66;;;13.92;82.19
77351;BME280;66420;50.246;14.320;2023-08-08T06:21:58;99492.22;;;13.93;81.66
77351;BME280;66420;50.246;14.320;2023-08-08T06:24:43;99493.75;;;14.02;80.22
77351;BME280;66420;50.246;14.320;2023-08-08T06:27:28;99482.59;;;13.99;81.78
77351;BME280;66420;50.246;14.320;2023-08-08T06:30:13;99487.47;;;14.02;81.94
77351;BME280;66420;50.246;14.320;2023-08-08T06:32:58;99489.88;;;14.03;81.14
77351;BME280;66420;50.246;14.320;2023-08-08T06:35:42;99491.63;;;14.08;80.20
77351;BME280;66420;50.246;14.320;2023-08-08T06:38:27;99488.81;;;14.16;80.39
77351;BME280;66420;50.246;14.320;2023-08-08T06:41:12;99491.03;;;14.23;80.32
77351;BME280;66420;50.246;14.320;2023-08-08T06:43:58;99500.25;;;14.27;79.24
77351;BME280;66420;50.246;14.320;2023-08-08T06:46:42;99499.34;;;14.44;79.58
77351;BME280;66420;50.246;14.320;2023-08-08T06:49:27;99501.00;;;14.78;79.25
77351;BME280;66420;50.246;14.320;2023-08-08T06:52:11;99495.22;;;14.91;76.24
77351;BME280;66420;50.246;14.320;2023-08-08T06:54:56;99492.84;;;15.02;75.83
77351;BME280;66420;50.246;14.320;2023-08-08T06:57:41;99483.16;;;15.29;75.58
77351;BME280;66420;50.246;14.320;2023-08-08T07:00:26;99489.81;;;15.40;74.85
77351;BME280;66420;50.246;14.320;2023-08-08T07:03:12;99493.66;;;15.47;72.75
77351;BME280;66420;50.246;14.320;2023-08-08T07:05:56;99497.25;;;15.60;73.35
77351;BME280;66420;50.246;14.320;2023-08-08T07:08:41;99487.94;;;15.65;73.85
77351;BME280;66420;50.246;14.320;2023-08-08T07:11:26;99476.53;;;15.54;72.71
77351;BME280;66420;50.246;14.320;2023-08-08T07:14:11;99487.53;;;15.42;73.01
77351;BME280;66420;50.246;14.320;2023-08-08T07:16:56;99483.16;;;15.29;72.74
77351;BME280;66420;50.246;14.320;2023-08-08T07:19:41;99471.78;;;15.30;72.93
77351;BME280;66420;50.246;14.320;2023-08-08T07:22:28;99473.53;;;15.47;74.45
77351;BME280;66420;50.246;14.320;2023-08-08T07:25:15;99472.66;;;15.55;74.78
77351;BME280;66420;50.246;14.320;2023-08-08T07:27:59;99474.97;;;15.53;74.25
77351;BME280;66420;50.246;14.320;2023-08-08T07:30:44;99484.16;;;15.57;75.74
77351;BME280;66420;50.246;14.320;2023-08-08T07:33:28;99483.84;;;15.38;73.62
77351;BME280;66420;50.246;14.320;2023-08-08T07:36:13;99481.88;;;15.26;73.45
77351;BME280;66420;50.246;14.320;2023-08-08T07:38:58;99484.06;;;15.21;74.46
77351;BME280;66420;50.246;14.320;2023-08-08T07:41:43;99482.66;;;15.15;75.07
77351;BME280;66420;50.246;14.320;2023-08-08T07:44:29;99473.84;;;15.21;74.03
77351;BME280;66420;50.246;14.320;2023-08-08T07:47:13;99474.34;;;15.47;74.56
77351;BME280;66420;50.246;14.320;2023-08-08T07:49:58;99474.41;;;15.72;72.60
77351;BME280;66420;50.246;14.320;2023-08-08T07:52:45;99478.28;;;15.83;71.37
77351;BME280;66420;50.246;14.320;2023-08-08T07:55:29;99477.22;;;16.00;71.65
77351;BME280;66420;50.246;14.320;2023-08-08T07:58:14;99478.78;;;16.37;70.46
77351;BME280;66420;50.246;14.320;2023-08-08T08:00:58;99474.91;;;16.26;69.82
77351;BME280;66420;50.246;14.320;2023-08-08T08:03:44;99482.03;;;16.27;71.38
77351;BME280;66420;50.246;14.320;2023-08-08T08:06:29;99481.44;;;16.33;70.77
77351;BME280;66420;50.246;14.320;2023-08-08T08:09:13;99483.69;;;16.16;70.56
77351;BME280;66420;50.246;14.320;2023-08-08T08:11:59;99468.97;;;16.12;70.53
77351;BME280;66420;50.246;14.320;2023-08-08T08:14:43;99471.41;;;16.41;69.65
77351;BME280;66420;50.246;14.320;2023-08-08T08:17:29;99479.78;;;16.57;67.60
77351;BME280;66420;50.246;14.320;2023-08-08T08:20:14;99473.44;;;16.56;68.62
77351;BME280;66420;50.246;14.320;2023-08-08T08:22:59;99473.59;;;16.48;67.79
77351;BME280;66420;50.246;14.320;2023-08-08T08:25:43;99467.97;;;16.44;68.56
77351;BME280;66420;50.246;14.320;2023-08-08T08:28:28;99466.91;;;16.49;68.89
77351;BME280;66420;50.246;14.320;2023-08-08T08:31:12;99466.06;;;16.72;68.48
77351;BME280;66420;50.246;14.320;2023-08-08T08:33:57;99470.16;;;16.78;67.56
77351;BME280;66420;50.246;14.320;2023-08-08T08:36:42;99466.75;;;16.97;68.84
77351;BME280;66420;50.246;14.320;2023-08-08T08:39:26;99460.22;;;16.90;66.47
77351;BME280;66420;50.246;14.320;2023-08-08T08:42:13;99450.47;;;16.80;65.95
77351;BME280;66420;50.246;14.320;2023-08-08T08:44:59;99459.50;;;16.93;66.65
77351;BME280;66420;50.246;14.320;2023-08-08T08:47:46;99458.13;;;17.14;66.58
77351;BME280;66420;50.246;14.320;2023-08-08T08:50:32;99464.84;;;17.29;60.75
77351;BME280;66420;50.246;14.320;2023-08-08T08:53:18;99466.00;;;17.28;58.70
77351;BME280;66420;50.246;14.320;2023-08-08T08:56:03;99460.47;;;17.28;59.12
77351;BME280;66420;50.246;14.320;2023-08-08T08:58:48;99455.22;;;17.39;58.81
77351;BME280;66420;50.246;14.320;2023-08-08T09:01:33;99456.00;;;17.39;60.50
77351;BME280;66420;50.246;14.320;2023-08-08T09:04:19;99453.59;;;17.38;60.35
77351;BME280;66420;50.246;14.320;2023-08-08T09:07:06;99452.34;;;17.35;59.20
77351;BME280;66420;50.246;14.320;2023-08-08T09:09:51;99456.00;;;17.39;60.13
77351;BME280;66420;50.246;14.320;2023-08-08T09:12:36;99455.41;;;17.46;59.32
77351;BME280;66420;50.246;14.320;2023-08-08T09:15:21;99462.00;;;17.41;60.00
77351;BME280;66420;50.246;14.320;2023-08-08T09:18:07;99455.94;;;17.36;61.00
77351;BME280;66420;50.246;14.320;2023-08-08T09:20:52;99450.22;;;17.44;60.09
77351;BME280;66420;50.246;14.320;2023-08-08T09:23:37;99450.31;;;17.32;60.90
77351;BME280;66420;50.246;14.320;2023-08-08T09:26:23;99447.25;;;17.21;61.36
77351;BME280;66420;50.246;14.320;2023-08-08T09:29:08;99441.44;;;17.11;60.97
77351;BME280;66420;50.246;14.320;2023-08-08T09:31:53;99441.00;;;17.56;61.83
77351;BME280;66420;50.246;14.320;2023-08-08T09:34:37;99435.78;;;17.66;60.91
77351;BME280;66420;50.246;14.320;2023-08-08T09:37:25;99443.34;;;17.69;61.46
77351;BME280;66420;50.246;14.320;2023-08-08T09:40:10;99441.59;;;17.61;60.45
77351;BME280;66420;50.246;14.320;2023-08-08T09:42:56;99441.19;;;17.47;59.54
77351;BME280;66420;50.246;14.320;2023-08-08T09:45:42;99433.16;;;17.58;59.93
77351;BME280;66420;50.246;14.320;2023-08-08T09:48:31;99437.81;;;17.69;58.72
77351;BME280;66420;50.246;14.320;2023-08-08T09:51:16;99442.53;;;18.00;57.78
77351;BME280;66420;50.246;14.320;2023-08-08T09:54:02;99429.13;;;18.56;59.29
77351;BME280;66420;50.246;14.320;2023-08-08T09:56:49;99423.72;;;18.83;55.89
77351;BME280;66420;50.246;14.320;2023-08-08T09:59:36;99415.69;;;18.78;55.17
77351;BME280;66420;50.246;14.320;2023-08-08T10:02:22;99421.19;;;18.74;55.49
77351;BME280;66420;50.246;14.320;2023-08-08T10:05:06;99422.69;;;18.91;54.50
77351;BME280;66420;50.246;14.320;2023-08-08T10:07:53;99419.84;;;18.87;51.93
77351;BME280;66420;50.246;14.320;2023-08-08T10:10:38;99419.09;;;18.52;51.94
77351;BME280;66420;50.246;14.320;2023-08-08T10:13:26;99425.47;;;18.72;53.73
77351;BME280;66420;50.246;14.320;2023-08-08T10:16:11;99421.75;;;18.64;53.96
77351;BME280;66420;50.246;14.320;2023-08-08T10:19:02;99419.94;;;18.72;56.64
77351;BME280;66420;50.246;14.320;2023-08-08T10:21:47;99414.59;;;18.82;53.87
77351;BME280;66420;50.246;14.320;2023-08-08T10:24:36;99415.22;;;18.95;51.70
77351;BME280;66420;50.246;14.320;2023-08-08T10:27:34;99403.81;;;18.77;51.47
77351;BME280;66420;50.246;14.320;2023-08-08T10:30:20;99407.16;;;18.86;51.58
77351;BME280;66420;50.246;14.320;2023-08-08T10:33:05;99403.50;;;18.82;50.41
77351;BME280;66420;50.246;14.320;2023-08-08T10:36:01;99402.72;;;19.04;51.25
77351;BME280;66420;50.246;14.320;2023-08-08T10:38:50;99394.03;;;18.83;49.69
77351;BME280;66420;50.246;14.320;2023-08-08T10:41:45;99387.97;;;18.78;50.43
77351;BME280;66420;50.246;14.320;2023-08-08T10:44:30;99378.69;;;19.12;48.81
77351;BME280;66420;50.246;14.320;2023-08-08T10:47:16;99382.00;;;19.67;49.20
77351;BME280;66420;50.246;14.320;2023-08-08T10:50:27;99364.63;;;20.00;51.54
77351;BME280;66420;50.246;14.320;2023-08-08T10:53:11;99360.50;;;19.90;49.20
77351;BME280;66420;50.246;14.320;2023-08-08T10:56:01;99367.84;;;20.02;49.46
77351;BME280;66420;50.246;14.320;2023-08-08T10:58:49;99360.91;;;19.62;50.15
77351;BME280;66420;50.246;14.320;2023-08-08T11:01:34;99355.78;;;19.41;50.24
77351;BME280;66420;50.246;14.320;2023-08-08T11:04:21;99366.91;;;19.19;49.84
77351;BME280;66420;50.246;14.320;2023-08-08T11:07:06;99355.59;;;19.54;49.87
77351;BME280;66420;50.246;14.320;2023-08-08T11:09:52;99351.00;;;19.38;51.27
77351;BME280;66420;50.246;14.320;2023-08-08T11:12:38;99354.13;;;19.60;50.37
77351;BME280;66420;50.246;14.320;2023-08-08T11:15:23;99341.13;;;19.93;51.36
77351;BME280;66420;50.246;14.320;2023-08-08T11:18:08;99341.94;;;19.68;50.96
77351;BME280;66420;50.246;14.320;2023-08-08T11:20:54;99340.38;;;19.44;51.08
77351;BME280;66420;50.246;14.320;2023-08-08T11:23:39;99341.66;;;19.76;52.21
77351;BME280;66420;50.246;14.320;2023-08-08T11:26:23;99326.25;;;20.39;50.70
77351;BME280;66420;50.246;14.320;2023-08-08T11:29:09;99329.03;;;20.39;49.54
77351;BME280;66420;50.246;14.320;2023-08-08T11:31:53;99334.88;;;20.00;48.77
77351;BME280;66420;50.246;14.320;2023-08-08T11:34:39;99320.34;;;20.14;47.94
77351;BME280;66420;50.246;14.320;2023-08-08T11:37:23;99328.38;;;19.63;48.04
77351;BME280;66420;50.246;14.320;2023-08-08T11:40:09;99324.28;;;19.53;49.16
77351;BME280;66420;50.246;14.320;2023-08-08T11:42:55;99327.44;;;19.52;49.06
77351;BME280;66420;50.246;14.320;2023-08-08T11:45:42;99317.59;;;19.58;50.08
77351;BME280;66420;50.246;14.320;2023-08-08T11:48:27;99313.50;;;19.74;48.18
77351;BME280;66420;50.246;14.320;2023-08-08T11:51:14;99296.91;;;20.11;50.59
77351;BME280;66420;50.246;14.320;2023-08-08T11:53:59;99292.19;;;20.15;46.80
77351;BME280;66420;50.246;14.320;2023-08-08T11:56:43;99305.50;;;20.66;47.68
77351;BME280;66420;50.246;14.320;2023-08-08T11:59:31;99283.00;;;20.45;41.60
77351;BME280;66420;50.246;14.320;2023-08-08T12:02:16;99283.16;;;20.59;43.84
77351;BME280;66420;50.246;14.320;2023-08-08T12:05:11;99278.22;;;20.82;42.33
77351;BME280;66420;50.246;14.320;2023-08-08T12:07:58;99284.00;;;21.07;41.83
77351;BME280;66420;50.246;14.320;2023-08-08T12:10:48;99278.16;;;21.15;40.29
77351;BME280;66420;50.246;14.320;2023-08-08T12:13:43;99278.38;;;21.51;38.09
77351;BME280;66420;50.246;14.320;2023-08-08T12:16:29;99267.59;;;21.46;37.73
77351;BME280;66420;50.246;14.320;2023-08-08T12:19:15;99270.00;;;21.44;39.14
77351;BME280;66420;50.246;14.320;2023-08-08T12:22:05;99271.28;;;21.06;39.63
77351;BME280;66420;50.246;14.320;2023-08-08T12:24:50;99267.91;;;20.86;39.03
77351;BME280;66420;50.246;14.320;2023-08-08T12:27:35;99265.34;;;20.67;38.65
77351;BME280;66420;50.246;14.320;2023-08-08T12:30:20;99260.00;;;20.88;37.91
77351;BME280;66420;50.246;14.320;2023-08-08T12:33:05;99258.66;;;21.15;40.01
77351;BME280;66420;50.246;14.320;2023-08-08T12:35:49;99259.72;;;21.55;38.22
77351;BME280;66420;50.246;14.320;2023-08-08T12:38:34;99269.00;;;21.18;38.71
77351;BME280;66420;50.246;14.320;2023-08-08T12:41:19;99261.50;;;20.78;36.44
77351;BME280;66420;50.246;14.320;2023-08-08T12:44:04;99254.66;;;20.69;36.69
77351;BME280;66420;50.246;14.320;2023-08-08T12:46:49;99250.72;;;20.73;38.27
77351;BME280;66420;50.246;14.320;2023-08-08T12:49:35;99259.56;;;20.86;38.25
77351;BME280;66420;50.246;14.320;2023-08-08T12:52:20;99256.66;;;20.72;37.08
77351;BME280;66420;50.246;14.320;2023-08-08T12:55:05;99261.47;;;20.71;39.22
77351;BME280;66420;50.246;14.320;2023-08-08T12:57:51;99257.09;;;20.74;39.42
77351;BME280;66420;50.246;14.320;2023-08-08T13:00:36;99246.66;;;20.64;39.70
77351;BME280;66420;50.246;14.320;2023-08-08T13:03:21;99241.81;;;20.54;38.75
77351;BME280;66420;50.246;14.320;2023-08-08T13:06:06;99253.22;;;20.42;39.17
77351;BME280;66420;50.246;14.320;2023-08-08T13:08:51;99248.78;;;20.77;39.08
77351;BME280;66420;50.246;14.320;2023-08-08T13:11:35;99241.25;;;20.78;40.01
77351;BME280;66420;50.246;14.320;2023-08-08T13:14:20;99249.53;;;21.18;40.71
77351;BME280;66420;50.246;14.320;2023-08-08T13:17:05;99255.97;;;21.26;40.00
77351;BME280;66420;50.246;14.320;2023-08-08T13:19:50;99253.81;;;21.09;39.55
77351;BME280;66420;50.246;14.320;2023-08-08T13:22:35;99253.22;;;21.33;40.21
77351;BME280;66420;50.246;14.320;2023-08-08T13:25:20;99247.03;;;21.68;39.08
77351;BME280;66420;50.246;14.320;2023-08-08T13:28:05;99254.28;;;21.76;40.03
77351;BME280;66420;50.246;14.320;2023-08-08T13:30:49;99258.00;;;21.36;38.20
77351;BME280;66420;50.246;14.320;2023-08-08T13:33:34;99249.72;;;21.43;37.83
77351;BME280;66420;50.246;14.320;2023-08-08T13:36:19;99243.06;;;21.62;39.27
77351;BME280;66420;50.246;14.320;2023-08-08T13:39:04;99242.16;;;21.44;38.40
77351;BME280;66420;50.246;14.320;2023-08-08T13:41:49;99224.75;;;21.64;38.52
77351;BME280;66420;50.246;14.320;2023-08-08T13:44:33;99238.03;;;21.23;37.72
77351;BME280;66420;50.246;14.320;2023-08-08T13:47:18;99238.69;;;21.06;38.86
77351;BME280;66420;50.246;14.320;2023-08-08T13:50:03;99227.56;;;21.06;38.88
77351;BME280;66420;50.246;14.320;2023-08-08T13:52:48;99229.31;;;21.25;37.97
77351;BME280;66420;50.246;14.320;2023-08-08T13:55:33;99233.44;;;21.49;38.14
77351;BME280;66420;50.246;14.320;2023-08-08T13:58:23;99228.03;;;21.81;38.88
77351;BME280;66420;50.246;14.320;2023-08-08T14:01:08;99236.84;;;21.93;38.72
77351;BME280;66420;50.246;14.320;2023-08-08T14:03:53;99241.53;;;21.79;38.94
77351;BME280;66420;50.246;14.320;2023-08-08T14:06:38;99226.72;;;21.64;39.04
77351;BME280;66420;50.246;14.320;2023-08-08T14:09:23;99231.56;;;21.71;39.56
77351;BME280;66420;50.246;14.320;2023-08-08T14:12:08;99224.66;;;21.47;38.70
77351;BME280;66420;50.246;14.320;2023-08-08T14:14:53;99221.31;;;21.20;39.64
77351;BME280;66420;50.246;14.320;2023-08-08T14:17:37;99220.88;;;21.14;38.92
77351;BME280;66420;50.246;14.320;2023-08-08T14:20:22;99234.69;;;21.04;39.44
77351;BME280;66420;50.246;14.320;2023-08-08T14:23:06;99222.38;;;21.08;39.57
77351;BME280;66420;50.246;14.320;2023-08-08T14:25:51;99223.66;;;21.14;40.41
77351;BME280;66420;50.246;14.320;2023-08-08T14:28:37;99242.06;;;21.26;40.03